createdAt,value
2018-07-10T00:00:29.849Z,591.1
2018-07-10T00:01:32.291Z,590.8
2018-07-10T00:02:34.738Z,591.3
2018-07-10T00:03:36.895Z,591.5
2018-07-10T00:04:39.359Z,591.4
2018-07-10T00:05:41.520Z,591.6
2018-07-10T00:06:43.428Z,591.8
2018-07-10T00:07:45.876Z,592.1
2018-07-10T00:08:48.331Z,592
2018-07-10T00:09:50.789Z,592
2018-07-10T00:10:52.673Z,592.1
2018-07-10T00:11:54.857Z,592.2
2018-07-10T00:12:57.035Z,592.5
2018-07-10T00:13:59.223Z,592.5
2018-07-10T00:15:01.678Z,592.4
2018-07-10T00:16:04.134Z,592.7
2018-07-10T00:17:05.755Z,592.4
2018-07-10T00:18:07.946Z,592.2
2018-07-10T00:19:10.137Z,592.1
2018-07-10T00:20:12.053Z,592.5
2018-07-10T00:21:13.960Z,592.2
2018-07-10T00:22:16.418Z,592.3
2018-07-10T00:23:18.615Z,592.2
2018-07-10T00:24:20.772Z,592.5
2018-07-10T00:25:22.947Z,592.3
2018-07-10T00:26:25.117Z,592.5
2018-07-10T00:27:27.014Z,592.6
2018-07-10T00:28:28.913Z,592.5
2018-07-10T00:29:31.137Z,593
2018-07-10T00:30:33.565Z,593.1
2018-07-10T00:31:36.018Z,592.8
2018-07-10T00:32:37.926Z,593
2018-07-10T00:33:40.106Z,592.7
2018-07-10T00:34:42.570Z,593.2
2018-07-10T00:35:45.023Z,593.4
2018-07-10T00:36:47.480Z,593.2
2018-07-10T00:37:49.104Z,593.4
2018-07-10T00:38:51.290Z,593.4
2018-07-10T00:39:53.185Z,594
2018-07-10T00:40:55.633Z,594
2018-07-10T00:41:56.970Z,594.1
2018-07-10T00:42:58.883Z,594
2018-07-10T00:44:01.330Z,594
2018-07-10T00:45:03.500Z,594.3
2018-07-10T00:46:05.681Z,594
2018-07-10T00:47:08.124Z,593.9
2018-07-10T00:48:10.341Z,593.9
2018-07-10T00:49:12.781Z,593.5
2018-07-10T00:50:15.236Z,593.4
2018-07-10T00:51:17.411Z,593.3
2018-07-10T00:52:19.574Z,593.6
2018-07-10T00:53:21.754Z,593.8
2018-07-10T00:54:23.918Z,593.6
2018-07-10T00:55:26.366Z,593.4
2018-07-10T00:56:28.823Z,593.6
2018-07-10T00:57:31.010Z,593.6
2018-07-10T00:58:33.207Z,593.6
2018-07-10T00:59:35.663Z,594
2018-07-10T01:00:37.827Z,593.7
2018-07-10T01:01:39.985Z,594.5
2018-07-10T01:02:42.148Z,594.2
2018-07-10T01:03:44.601Z,594.3
2018-07-10T01:04:46.777Z,594.1
2018-07-10T01:05:49.220Z,594.4
2018-07-10T01:06:51.394Z,594.2
2018-07-10T01:07:53.571Z,594.7
2018-07-10T01:08:55.758Z,594.5
2018-07-10T01:09:57.948Z,594.7
2018-07-10T01:11:00.407Z,594.9
2018-07-10T01:12:02.283Z,594.9
2018-07-10T01:13:04.447Z,595.1
2018-07-10T01:14:06.905Z,595.2
2018-07-10T01:15:09.356Z,595.2
2018-07-10T01:16:11.541Z,595.3
2018-07-10T01:17:13.437Z,595.1
2018-07-10T01:18:15.623Z,595.5
2018-07-10T01:19:18.069Z,595.4
2018-07-10T01:20:20.511Z,596.1
2018-07-10T01:21:22.690Z,596
2018-07-10T01:22:25.136Z,596
2018-07-10T01:23:27.591Z,595.6
2018-07-10T01:24:29.737Z,596.1
2018-07-10T01:25:32.198Z,596.2
2018-07-10T01:26:34.385Z,596.2
2018-07-10T01:27:36.826Z,595.7
2018-07-10T01:28:39.010Z,595.9
2018-07-10T01:29:40.902Z,596.2
2018-07-10T01:30:43.073Z,596.2
2018-07-10T01:31:45.233Z,596.2
2018-07-10T01:32:47.696Z,596.1
2018-07-10T01:33:50.251Z,596
2018-07-10T01:34:52.756Z,596.3
2018-07-10T01:35:54.925Z,596.3
2018-07-10T01:36:57.389Z,596.5
2018-07-10T01:37:59.849Z,596.3
2018-07-10T01:39:02.027Z,596.5
2018-07-10T01:40:04.221Z,597
2018-07-10T01:41:06.395Z,596.6
2018-07-10T01:42:08.285Z,596.6
2018-07-10T01:43:10.460Z,596.6
2018-07-10T01:44:12.085Z,596.6
2018-07-10T01:45:13.992Z,596.3
2018-07-10T01:46:16.190Z,596.4
2018-07-10T01:47:18.089Z,596.1
2018-07-10T01:48:20.546Z,596.4
2018-07-10T01:49:22.449Z,595.6
2018-07-10T01:50:24.345Z,596.1
2018-07-10T01:51:26.526Z,596.4
2018-07-10T01:52:28.969Z,596.2
2018-07-10T01:53:30.609Z,596.2
2018-07-10T01:54:32.505Z,596.3
2018-07-10T01:55:34.394Z,596.7
2018-07-10T01:56:37.015Z,596.4
2018-07-10T01:57:39.176Z,596.7
2018-07-10T01:58:41.327Z,596.6
2018-07-10T01:59:43.500Z,596.5
2018-07-10T02:00:45.939Z,597
2018-07-10T02:01:48.381Z,597.2
2018-07-10T02:02:50.825Z,597.1
2018-07-10T02:03:53.269Z,596.8
2018-07-10T02:04:55.462Z,597
2018-07-10T02:05:57.901Z,597
2018-07-10T02:07:00.373Z,597.3
2018-07-10T02:08:02.827Z,597.3
2018-07-10T02:09:05.008Z,597
2018-07-10T02:10:07.442Z,597.3
2018-07-10T02:11:09.598Z,597.7
2018-07-10T02:12:11.769Z,597.5
2018-07-10T02:13:13.943Z,597.3
2018-07-10T02:14:16.385Z,597.3
2018-07-10T02:15:18.533Z,597.7
2018-07-10T02:16:20.983Z,597.8
2018-07-10T02:17:23.416Z,597.8
2018-07-10T02:18:25.050Z,597.5
2018-07-10T02:19:27.511Z,597.7
2018-07-10T02:20:29.657Z,597.6
2018-07-10T02:21:31.535Z,597.9
2018-07-10T02:22:33.455Z,597.8
2018-07-10T02:23:35.627Z,598.3
2018-07-10T02:24:38.090Z,598.4
2018-07-10T02:25:39.750Z,598.5
2018-07-10T02:26:41.936Z,598.9
2018-07-10T02:27:44.595Z,599
2018-07-10T02:28:46.804Z,598.9
2018-07-10T02:29:48.977Z,599.1
2018-07-10T02:30:51.420Z,598.8
2018-07-10T02:31:53.608Z,598.9
2018-07-10T02:32:55.796Z,598.8
2018-07-10T02:33:57.973Z,598.8
2018-07-10T02:34:59.894Z,599
2018-07-10T02:36:01.790Z,599.1
2018-07-10T02:37:03.959Z,599.6
2018-07-10T02:38:06.404Z,599.3
2018-07-10T02:39:08.847Z,599.5
2018-07-10T02:40:11.037Z,599.4
2018-07-10T02:41:13.490Z,599.1
2018-07-10T02:42:15.366Z,598.9
2018-07-10T02:43:17.537Z,598.6
2018-07-10T02:44:19.725Z,598.7
2018-07-10T02:45:22.186Z,598.9
2018-07-10T02:46:24.374Z,598.9
2018-07-10T02:47:26.551Z,599.1
2018-07-10T02:48:28.456Z,599.1
2018-07-10T02:49:30.355Z,598.9
2018-07-10T02:50:32.543Z,599.1
2018-07-10T02:51:34.992Z,598.8
2018-07-10T02:52:37.429Z,598.9
2018-07-10T02:53:39.880Z,598.9
2018-07-10T02:54:41.796Z,599
2018-07-10T02:55:43.713Z,599.1
2018-07-10T02:56:45.865Z,599.2
2018-07-10T02:57:47.773Z,599.4
2018-07-10T02:58:49.671Z,599.4
2018-07-10T02:59:51.546Z,599.6
2018-07-10T03:00:53.992Z,599.3
2018-07-10T03:01:56.140Z,599.7
2018-07-10T03:02:58.016Z,599.7
2018-07-10T03:04:00.188Z,599.6
2018-07-10T03:05:02.133Z,600.1
2018-07-10T03:06:04.313Z,599.9
2018-07-10T03:07:06.767Z,599.8
2018-07-10T03:08:08.955Z,599.6
2018-07-10T03:09:11.121Z,599.7
2018-07-10T03:10:13.566Z,600.4
2018-07-10T03:11:16.008Z,600.3
2018-07-10T03:12:18.452Z,600.5
2018-07-10T03:13:20.619Z,600.2
2018-07-10T03:14:22.302Z,600.1
2018-07-10T03:15:24.779Z,600.3
2018-07-10T03:16:26.980Z,600.8
2018-07-10T03:17:29.145Z,600.6
2018-07-10T03:18:31.067Z,601.1
2018-07-10T03:19:32.965Z,601.4
2018-07-10T03:20:35.421Z,601.6
2018-07-10T03:21:37.862Z,601.6
2018-07-10T03:22:40.060Z,601.4
2018-07-10T03:23:41.981Z,601.8
2018-07-10T03:24:44.430Z,601.6
2018-07-10T03:25:46.902Z,601.4
2018-07-10T03:26:49.347Z,601.6
2018-07-10T03:27:51.796Z,601.4
2018-07-10T03:28:53.715Z,601.1
2018-07-10T03:29:56.157Z,601
2018-07-10T03:30:58.619Z,601.2
2018-07-10T03:32:00.792Z,600.8
2018-07-10T03:33:02.973Z,600.3
2018-07-10T03:34:04.867Z,600.4
2018-07-10T03:35:07.729Z,600.1
2018-07-10T03:36:10.187Z,600
2018-07-10T03:37:12.371Z,600.1
2018-07-10T03:38:14.234Z,599.9
2018-07-10T03:39:16.684Z,600
2018-07-10T03:40:19.121Z,599.8
2018-07-10T03:41:21.575Z,599.7
2018-07-10T03:42:24.020Z,599.6
2018-07-10T03:43:26.473Z,599.8
2018-07-10T03:44:28.914Z,599.9
2018-07-10T03:45:31.364Z,600
2018-07-10T03:46:33.822Z,600.1
2018-07-10T03:47:35.983Z,600.4
2018-07-10T03:48:38.434Z,600.3
2018-07-10T03:49:40.607Z,600.7
2018-07-10T03:50:42.222Z,600.7
2018-07-10T03:51:44.673Z,600.8
2018-07-10T03:52:47.116Z,601.1
2018-07-10T03:53:49.570Z,601.1
2018-07-10T03:54:52.023Z,600.9
2018-07-10T03:55:54.475Z,600.6
2018-07-10T03:56:56.643Z,600.4
2018-07-10T03:57:59.088Z,599.9
2018-07-10T03:59:01.569Z,599.9
2018-07-10T04:00:04.006Z,599.9
2018-07-10T04:01:06.456Z,599.7
2018-07-10T04:02:08.650Z,600
2018-07-10T04:03:11.113Z,599.8
2018-07-10T04:04:13.288Z,599.7
2018-07-10T04:05:15.735Z,599.6
2018-07-10T04:06:17.630Z,599.6
2018-07-10T04:07:20.084Z,599.6
2018-07-10T04:08:22.532Z,599.6
2018-07-10T04:09:24.406Z,599.2
2018-07-10T04:10:26.577Z,599.9
2018-07-10T04:11:28.465Z,599.5
2018-07-10T04:12:30.351Z,599.7
2018-07-10T04:13:32.798Z,600.2
2018-07-10T04:14:34.969Z,600.5
2018-07-10T04:15:36.868Z,600.4
2018-07-10T04:16:39.322Z,601
2018-07-10T04:17:41.815Z,600.8
2018-07-10T04:18:44.258Z,600.9
2018-07-10T04:19:46.440Z,600.7
2018-07-10T04:20:48.356Z,600.8
2018-07-10T04:21:50.807Z,600.8
2018-07-10T04:22:53.001Z,600.5
2018-07-10T04:23:55.206Z,600.5
2018-07-10T04:24:57.118Z,600.5
2018-07-10T04:25:59.300Z,600.4
2018-07-10T04:27:01.468Z,600.4
2018-07-10T04:28:03.649Z,600.6
2018-07-10T04:29:05.538Z,600.6
2018-07-10T04:30:07.980Z,600.5
2018-07-10T04:31:10.148Z,600.3
2018-07-10T04:32:12.337Z,600.4
2018-07-10T04:33:14.499Z,600
2018-07-10T04:34:16.938Z,600
2018-07-10T04:35:19.120Z,599.7
2018-07-10T04:36:21.305Z,599.7
2018-07-10T04:37:23.760Z,599.8
2018-07-10T04:38:26.213Z,599.9
2018-07-10T04:39:27.828Z,599.6
2018-07-10T04:40:29.741Z,599.6
2018-07-10T04:41:31.913Z,599.9
2018-07-10T04:42:33.917Z,600.2
2018-07-10T04:43:36.466Z,600
2018-07-10T04:44:39.014Z,600
2018-07-10T04:45:41.249Z,600.1
2018-07-10T04:46:43.770Z,600.4
2018-07-10T04:47:46.040Z,600.2
2018-07-10T04:48:48.529Z,600.5
2018-07-10T04:49:50.716Z,600.3
2018-07-10T04:50:52.905Z,600.2
2018-07-10T04:51:55.357Z,600.2
2018-07-10T04:52:57.546Z,600.2
2018-07-10T04:53:59.739Z,600.3
2018-07-10T04:55:01.941Z,600.3
2018-07-10T04:56:04.029Z,600.5
2018-07-10T04:57:06.178Z,600.9
2018-07-10T04:58:08.630Z,600.5
2018-07-10T04:59:10.816Z,600.5
2018-07-10T05:00:13.276Z,600.8
2018-07-10T05:01:15.458Z,600.6
2018-07-10T05:02:17.700Z,600.4
2018-07-10T05:03:19.884Z,600.9
2018-07-10T05:04:22.357Z,600.8
2018-07-10T05:05:24.806Z,601.1
2018-07-10T05:06:26.693Z,600.7
2018-07-10T05:07:28.881Z,600.8
2018-07-10T05:08:30.504Z,601.5
2018-07-10T05:09:32.957Z,601.7
2018-07-10T05:10:35.148Z,601.5
2018-07-10T05:11:37.597Z,601.5
2018-07-10T05:12:39.760Z,601.5
2018-07-10T05:13:42.212Z,601.1
2018-07-10T05:14:44.357Z,601
2018-07-10T05:15:46.792Z,600.9
2018-07-10T05:16:49.242Z,600.9
2018-07-10T05:17:51.196Z,601.3
2018-07-10T05:18:53.110Z,601.1
2018-07-10T05:19:55.307Z,601.1
2018-07-10T05:20:57.764Z,600.7
2018-07-10T05:21:59.933Z,600.6
2018-07-10T05:23:02.266Z,600.9
2018-07-10T05:24:04.724Z,601
2018-07-10T05:25:07.240Z,600.7
2018-07-10T05:26:09.247Z,600.7
2018-07-10T05:27:11.257Z,601
2018-07-10T05:28:13.528Z,601.1
2018-07-10T05:29:16.042Z,601
2018-07-10T05:30:18.525Z,601.3
2018-07-10T05:31:20.699Z,601.8
2018-07-10T05:32:23.164Z,601.8
2018-07-10T05:33:25.071Z,601.5
2018-07-10T05:34:27.517Z,601.6
2018-07-10T05:35:29.689Z,601.5
2018-07-10T05:36:31.605Z,601.4
2018-07-10T05:37:33.787Z,601.8
2018-07-10T05:38:36.244Z,601.8
2018-07-10T05:39:38.151Z,601.8
2018-07-10T05:40:40.062Z,601.7
2018-07-10T05:41:42.256Z,601.8
2018-07-10T05:42:44.716Z,601.9
2018-07-10T05:43:46.875Z,602
2018-07-10T05:44:48.761Z,602.1
2018-07-10T05:45:50.102Z,602.2
2018-07-10T05:46:52.560Z,601.8
2018-07-10T05:47:54.719Z,601.7
2018-07-10T05:48:57.162Z,601.7
2018-07-10T05:49:59.613Z,601.9
2018-07-10T05:51:01.788Z,601.7
2018-07-10T05:52:04.369Z,601.8
2018-07-10T05:53:06.814Z,602.1
2018-07-10T05:54:09.269Z,602.4
2018-07-10T05:55:11.448Z,602.2
2018-07-10T05:56:13.888Z,601.9
2018-07-10T05:57:16.055Z,602.3
2018-07-10T05:58:18.254Z,601.6
2018-07-10T05:59:20.711Z,601.3
2018-07-10T06:00:22.905Z,601.7
2018-07-10T06:01:25.372Z,601.7
2018-07-10T06:02:27.818Z,601.8
2018-07-10T06:03:30.282Z,601.3
2018-07-10T06:04:32.967Z,600.9
2018-07-10T06:05:34.873Z,600.5
2018-07-10T06:06:37.056Z,600.3
2018-07-10T06:07:38.959Z,600
2018-07-10T06:08:41.123Z,599.5
2018-07-10T06:09:43.304Z,599.1
2018-07-10T06:10:44.939Z,599.3
2018-07-10T06:11:47.108Z,599.1
2018-07-10T06:12:49.566Z,599.3
2018-07-10T06:13:52.102Z,599.2
2018-07-10T06:14:54.270Z,599.3
2018-07-10T06:15:56.449Z,599.6
2018-07-10T06:16:58.626Z,599.3
2018-07-10T06:18:00.775Z,599.5
2018-07-10T06:19:02.959Z,599.6
2018-07-10T06:20:05.134Z,599.6
2018-07-10T06:21:07.317Z,600
2018-07-10T06:22:09.504Z,600
2018-07-10T06:23:11.695Z,600
2018-07-10T06:24:13.867Z,600.2
2018-07-10T06:25:16.053Z,600.4
2018-07-10T06:26:18.240Z,600.2
2018-07-10T06:27:20.720Z,600.1
2018-07-10T06:28:22.889Z,600.3
2018-07-10T06:29:25.094Z,600.6
2018-07-10T06:30:28.225Z,601
2018-07-10T06:31:30.759Z,601.3
2018-07-10T06:32:32.932Z,601.6
2018-07-10T06:33:35.112Z,601.6
2018-07-10T06:34:37.294Z,601.7
2018-07-10T06:35:39.737Z,601.5
2018-07-10T06:36:42.191Z,601.3
2018-07-10T06:37:44.643Z,600.8
2018-07-10T06:38:46.530Z,601.4
2018-07-10T06:39:48.886Z,601.4
2018-07-10T06:40:51.387Z,601.5
2018-07-10T06:41:53.553Z,601
2018-07-10T06:42:56.006Z,600.9
2018-07-10T06:43:58.481Z,600.7
2018-07-10T06:45:00.351Z,601
2018-07-10T06:46:02.234Z,600.5
2018-07-10T06:47:04.687Z,600.5
2018-07-10T06:48:07.135Z,600.2
2018-07-10T06:49:09.577Z,600.3
2018-07-10T06:50:12.041Z,599.9
2018-07-10T06:51:13.968Z,599.9
2018-07-10T06:52:16.974Z,599.9
2018-07-10T06:53:21.964Z,599.9
2018-07-10T06:54:23.811Z,599.8
2018-07-10T06:55:25.979Z,599.9
2018-07-10T06:56:28.423Z,600
2018-07-10T06:57:30.870Z,600.3
2018-07-10T06:58:33.305Z,600
2018-07-10T06:59:35.751Z,600.3
2018-07-10T07:00:38.083Z,600.4
2018-07-10T07:01:40.236Z,600.2
2018-07-10T07:02:42.681Z,600.2
2018-07-10T07:03:45.128Z,599.9
2018-07-10T07:04:47.565Z,600.5
2018-07-10T07:05:49.439Z,600.2
2018-07-10T07:06:51.620Z,600
2018-07-10T07:07:54.007Z,599.8
2018-07-10T07:08:56.458Z,600.3
2018-07-10T07:09:58.915Z,600.2
2018-07-10T07:11:01.097Z,600
2018-07-10T07:12:03.267Z,600.2
2018-07-10T07:13:05.459Z,600.4
2018-07-10T07:14:07.372Z,600.3
2018-07-10T07:15:09.547Z,600
2018-07-10T07:16:11.994Z,600.3
2018-07-10T07:17:14.457Z,600.6
2018-07-10T07:18:16.900Z,600.4
2018-07-10T07:19:18.808Z,600.2
2018-07-10T07:20:20.993Z,600.4
2018-07-10T07:21:23.182Z,600.4
2018-07-10T07:22:25.633Z,600.4
2018-07-10T07:23:28.097Z,600.5
2018-07-10T07:24:30.278Z,601
2018-07-10T07:25:32.467Z,600.7
2018-07-10T07:26:34.918Z,600.6
2018-07-10T07:27:37.076Z,600.4
2018-07-10T07:28:38.973Z,600.6
2018-07-10T07:29:40.882Z,600.5
2018-07-10T07:30:43.084Z,600.6
2018-07-10T07:31:45.532Z,600.9
2018-07-10T07:32:47.991Z,601.1
2018-07-10T07:33:50.176Z,601.2
2018-07-10T07:34:52.656Z,601.1
2018-07-10T07:35:55.173Z,601.1
2018-07-10T07:36:57.070Z,600.7
2018-07-10T07:37:59.266Z,600.4
2018-07-10T07:39:01.257Z,600.5
2018-07-10T07:40:03.785Z,600.2
2018-07-10T07:41:06.347Z,600
2018-07-10T07:42:08.299Z,600.1
2018-07-10T07:43:10.521Z,600.1
2018-07-10T07:44:12.573Z,599.7
2018-07-10T07:45:15.031Z,600.1
2018-07-10T07:46:17.488Z,599.7
2018-07-10T07:47:19.657Z,599.7
2018-07-10T07:48:21.835Z,599.9
2018-07-10T07:49:24.005Z,599.9
2018-07-10T07:50:26.208Z,599.9
2018-07-10T07:51:28.087Z,599.8
2018-07-10T07:52:30.406Z,599.8
2018-07-10T07:53:32.527Z,599.6
2018-07-10T07:54:34.709Z,599.9
2018-07-10T07:55:36.886Z,599.9
2018-07-10T07:56:39.326Z,599.7
2018-07-10T07:57:41.500Z,599.8
2018-07-10T07:58:43.946Z,600
2018-07-10T07:59:46.397Z,600.2
2018-07-10T08:00:48.611Z,600.2
2018-07-10T08:01:50.792Z,600.3
2018-07-10T08:02:52.706Z,600.6
2018-07-10T08:03:54.920Z,600.4
2018-07-10T08:04:57.370Z,600
2018-07-10T08:05:59.544Z,600.3
2018-07-10T08:07:01.992Z,600.2
2018-07-10T08:08:04.169Z,600.2
2018-07-10T08:09:06.635Z,600.6
2018-07-10T08:10:09.083Z,600.5
2018-07-10T08:11:11.018Z,600.1
2018-07-10T08:12:13.182Z,600
2018-07-10T08:13:15.626Z,600.1
2018-07-10T08:14:17.807Z,600
2018-07-10T08:15:19.976Z,599.7
2018-07-10T08:16:22.144Z,600
2018-07-10T08:17:23.792Z,599.9
2018-07-10T08:18:25.956Z,600.2
2018-07-10T08:19:28.404Z,600.3
2018-07-10T08:20:30.852Z,600.1
2018-07-10T08:21:33.026Z,600.2
2018-07-10T08:22:35.217Z,599.4
2018-07-10T08:23:37.816Z,599.8
2018-07-10T08:24:40.315Z,599.8
2018-07-10T08:25:42.827Z,600.2
2018-07-10T08:26:44.726Z,599.9
2018-07-10T08:27:46.909Z,600
2018-07-10T08:28:48.795Z,600.1
2018-07-10T08:29:50.979Z,599.8
2018-07-10T08:30:52.896Z,599.8
2018-07-10T08:31:55.346Z,600.2
2018-07-10T08:32:57.799Z,600.6
2018-07-10T08:33:59.962Z,600.4
2018-07-10T08:35:02.056Z,600.1
2018-07-10T08:36:03.977Z,600.6
2018-07-10T08:37:06.462Z,600.4
2018-07-10T08:38:08.337Z,600.2
2018-07-10T08:39:10.515Z,600.6
2018-07-10T08:40:12.693Z,601
2018-07-10T08:41:14.881Z,600.8
2018-07-10T08:42:17.052Z,601.1
2018-07-10T08:43:19.734Z,600.7
2018-07-10T08:44:21.688Z,601.1
2018-07-10T08:45:24.132Z,600.9
2018-07-10T08:46:26.579Z,600.8
2018-07-10T08:47:28.750Z,600.7
2018-07-10T08:48:31.212Z,601
2018-07-10T08:49:33.097Z,601
2018-07-10T08:50:35.439Z,600.8
2018-07-10T08:51:37.308Z,601.1
2018-07-10T08:52:39.759Z,601.5
2018-07-10T08:53:41.922Z,601.5
2018-07-10T08:54:44.386Z,601.3
2018-07-10T08:55:46.530Z,601.8
2018-07-10T08:56:48.715Z,601.8
2018-07-10T08:57:50.896Z,601.9
2018-07-10T08:58:53.335Z,601.6
2018-07-10T08:59:55.919Z,601.8
2018-07-10T09:00:58.107Z,601.9
2018-07-10T09:01:59.720Z,601.7
2018-07-10T09:03:01.883Z,601.6
2018-07-10T09:04:03.783Z,601.9
2018-07-10T09:05:05.980Z,601.8
2018-07-10T09:06:08.427Z,601.9
2018-07-10T09:07:10.331Z,601.5
2018-07-10T09:08:12.478Z,601.2
2018-07-10T09:09:14.640Z,601.2
2018-07-10T09:10:16.853Z,601.3
2018-07-10T09:11:19.299Z,601.4
2018-07-10T09:12:21.477Z,601.5
2018-07-10T09:13:23.653Z,601
2018-07-10T09:14:26.122Z,601.1
2018-07-10T09:28:40.762Z,601.4
2018-07-10T09:29:42.954Z,601.3
2018-07-10T09:30:44.862Z,601.6
2018-07-10T09:31:47.038Z,602.2
2018-07-10T09:32:48.924Z,602.2
2018-07-10T09:33:51.174Z,602.7
2018-07-10T09:34:53.402Z,602.8
2018-07-10T09:35:55.551Z,602.9
2018-07-10T09:36:57.737Z,603
2018-07-10T09:37:59.932Z,602.8
2018-07-10T09:39:02.149Z,602.7
2018-07-10T09:40:03.757Z,602.8
2018-07-10T09:41:06.218Z,602.5
2018-07-10T09:42:08.672Z,602.5
2018-07-10T09:43:11.113Z,602.8
2018-07-10T09:44:13.724Z,603
2018-07-10T09:45:15.930Z,602.6
2018-07-10T09:46:18.110Z,602.7
2018-07-10T09:47:20.296Z,602.5
2018-07-10T09:48:22.230Z,602.2
2018-07-10T09:49:24.680Z,602.4
2018-07-10T09:50:27.131Z,602.2
2018-07-10T09:51:29.297Z,601.8
2018-07-10T09:52:31.784Z,601.7
2018-07-10T09:53:34.239Z,601.7
2018-07-10T09:54:36.257Z,601.3
2018-07-10T09:55:37.636Z,601.6
2018-07-10T09:56:39.803Z,601.6
2018-07-10T09:57:42.274Z,601.8
2018-07-10T09:58:44.712Z,601.7
2018-07-10T09:59:46.882Z,601.8
2018-07-10T10:00:48.764Z,601.9
2018-07-10T10:01:51.012Z,601.1
2018-07-10T10:02:53.494Z,601.7
2018-07-10T10:03:55.389Z,601.4
2018-07-10T10:04:57.566Z,601.6
2018-07-10T10:05:59.727Z,601.6
2018-07-10T10:07:01.927Z,601.7
2018-07-10T10:08:04.086Z,601.6
2018-07-10T10:09:06.270Z,601.8
2018-07-10T10:10:08.462Z,601.9
2018-07-10T10:11:10.347Z,602
2018-07-10T10:12:12.528Z,602
2018-07-10T10:13:14.429Z,601.7
2018-07-10T10:14:16.881Z,602.2
2018-07-10T10:15:19.086Z,602.3
2018-07-10T10:16:21.533Z,602.2
2018-07-10T10:17:23.980Z,602.2
2018-07-10T10:18:26.448Z,602.1
2018-07-10T10:19:28.643Z,602
2018-07-10T10:20:30.554Z,601.8
2018-07-10T10:21:32.707Z,601.9
2018-07-10T10:22:34.887Z,601.9
2018-07-10T10:23:37.044Z,602.1
2018-07-10T10:24:38.941Z,602.1
2018-07-10T10:25:41.572Z,601.9
2018-07-10T10:26:43.749Z,602.1
2018-07-10T10:27:45.662Z,601.7
2018-07-10T10:28:47.581Z,601.9
2018-07-10T10:29:50.029Z,602
2018-07-10T10:30:52.486Z,602.1
2018-07-10T10:31:54.659Z,602
2018-07-10T10:32:57.104Z,602.5
2018-07-10T10:33:59.555Z,602.4
2018-07-10T10:35:01.750Z,602.5
2018-07-10T10:36:03.384Z,602.5
2018-07-10T10:37:05.827Z,602.8
2018-07-10T10:38:07.730Z,603.1
2018-07-10T10:39:09.909Z,602.8
2018-07-10T10:40:12.093Z,603.2
2018-07-10T10:41:13.981Z,603.3
2018-07-10T10:42:16.153Z,603.4
2018-07-10T10:43:18.612Z,603.5
2018-07-10T10:44:21.077Z,603.6
2018-07-10T10:45:22.974Z,603.3
2018-07-10T10:46:24.888Z,603.7
2018-07-10T10:47:27.060Z,603.6
2018-07-10T10:48:29.522Z,603.6
2018-07-10T10:49:32.429Z,604.1
2018-07-10T10:50:34.686Z,603.9
2018-07-10T10:51:37.132Z,603.8
2018-07-10T10:52:39.278Z,603.6
2018-07-10T10:53:41.222Z,604.4
2018-07-10T10:54:43.666Z,604.4
2018-07-10T10:55:46.120Z,604.1
2018-07-10T10:56:48.312Z,604.4
2018-07-10T10:57:50.750Z,604.4
2018-07-10T10:58:52.935Z,604.5
2018-07-10T10:59:55.395Z,604.5
2018-07-10T11:00:57.840Z,604.3
2018-07-10T11:01:59.743Z,605
2018-07-10T11:03:02.191Z,605.3
2018-07-10T11:04:04.627Z,605.3
2018-07-10T11:05:07.084Z,605.3
2018-07-10T11:06:09.527Z,605.5
2018-07-10T11:07:11.688Z,605.4
2018-07-10T11:08:14.136Z,605.3
2018-07-10T11:09:16.331Z,605.9
2018-07-10T11:10:18.254Z,605.9
2018-07-10T11:11:20.698Z,605.6
2018-07-10T11:12:23.158Z,605.6
2018-07-10T11:13:25.346Z,605.9
2018-07-10T11:14:26.692Z,606.1
2018-07-10T11:15:29.030Z,605.6
2018-07-10T11:16:31.229Z,606.8
2018-07-10T11:17:33.422Z,605.9
2018-07-10T11:18:35.613Z,606.3
2018-07-10T11:19:38.057Z,606.6
2018-07-10T11:20:40.502Z,606.8
2018-07-10T11:21:42.685Z,606.5
2018-07-10T11:22:44.577Z,607
2018-07-10T11:23:47.169Z,606.9
2018-07-10T11:24:48.900Z,606.6
2018-07-10T11:25:51.349Z,606.5
2018-07-10T11:26:53.536Z,607
2018-07-10T11:27:55.695Z,606.9
2018-07-10T11:28:57.868Z,606.9
2018-07-10T11:30:00.036Z,606.8
2018-07-10T11:31:02.207Z,606.7
2018-07-10T11:32:04.381Z,606.7
2018-07-10T11:33:06.828Z,606.9
2018-07-10T11:34:09.018Z,606.5
2018-07-10T11:35:11.205Z,606.3
2018-07-10T11:36:13.122Z,606.5
2018-07-10T11:37:15.591Z,606.4
2018-07-10T11:38:18.101Z,606.8
2018-07-10T11:39:20.695Z,607.1
2018-07-10T11:40:22.274Z,607
2018-07-10T11:41:24.460Z,607.1
2018-07-10T11:42:26.645Z,607.2
2018-07-10T11:43:28.818Z,607.3
2018-07-10T11:44:31.005Z,607.2
2018-07-10T11:45:33.222Z,606.9
2018-07-10T11:46:35.662Z,607.5
2018-07-10T11:47:37.821Z,607.6
2018-07-10T11:48:40.274Z,607.8
2018-07-10T11:49:42.723Z,607.5
2018-07-10T11:50:44.648Z,607.6
2018-07-10T11:51:47.512Z,607.7
2018-07-10T11:52:49.336Z,607.9
2018-07-10T11:53:51.238Z,607.9
2018-07-10T11:54:53.407Z,608
2018-07-10T11:55:55.576Z,607.8
2018-07-10T11:56:58.028Z,607.9
2018-07-10T11:58:00.477Z,608
2018-07-10T11:59:02.350Z,608.2
2018-07-10T12:00:04.518Z,608.4
2018-07-10T12:01:06.449Z,608.1
2018-07-10T12:02:08.907Z,607.9
2018-07-10T12:03:11.347Z,607.8
2018-07-10T12:04:13.807Z,608.4
2018-07-10T12:05:15.982Z,608.3
2018-07-10T12:06:18.177Z,608.3
2018-07-10T12:07:20.352Z,608
2018-07-10T12:08:22.804Z,608.2
2018-07-10T12:09:24.698Z,607.8
2018-07-10T12:10:27.139Z,607.9
2018-07-10T12:11:29.049Z,608.1
2018-07-10T12:12:31.635Z,608.3
2018-07-10T12:13:33.804Z,608.3
2018-07-10T12:14:36.267Z,608.3
2018-07-10T12:15:38.205Z,608.5
2018-07-10T12:16:40.760Z,608.8
2018-07-10T12:17:43.041Z,608.7
2018-07-10T12:18:45.319Z,608.8
2018-07-10T12:19:47.520Z,608.3
2018-07-10T12:20:50.228Z,608.7
2018-07-10T12:21:52.722Z,608.9
2018-07-10T12:22:54.632Z,608.8
2018-07-10T12:23:57.080Z,609
2018-07-10T12:24:59.249Z,609.1
2018-07-10T12:26:01.706Z,609.5
2018-07-10T12:27:03.610Z,609.6
2018-07-10T12:28:05.536Z,609.3
2018-07-10T12:29:07.529Z,609.5
2018-07-10T12:30:09.701Z,609.7
2018-07-10T12:31:11.878Z,609.8
2018-07-10T12:32:14.043Z,609.8
2018-07-10T12:33:16.488Z,610.1
2018-07-10T12:34:18.647Z,610.1
2018-07-10T12:35:20.821Z,610.3
2018-07-10T12:36:22.722Z,610
2018-07-10T12:37:25.176Z,609.8
2018-07-10T12:38:27.480Z,610.5
2018-07-10T12:39:30.027Z,610.2
2018-07-10T12:40:32.289Z,610.2
2018-07-10T12:41:34.800Z,610.6
2018-07-10T12:42:36.981Z,611.1
2018-07-10T12:43:39.156Z,611.1
2018-07-10T12:44:41.329Z,610.8
2018-07-10T12:45:43.488Z,611.6
2018-07-10T12:46:45.938Z,611.4
2018-07-10T12:47:48.397Z,611.5
2018-07-10T12:48:50.849Z,611.4
2018-07-10T12:49:53.038Z,611.3
2018-07-10T12:50:55.507Z,611.7
2018-07-10T12:51:57.971Z,611.2
2018-07-10T12:53:00.161Z,611.1
2018-07-10T12:54:02.604Z,611.6
2018-07-10T12:55:05.059Z,611.3
2018-07-10T12:56:07.153Z,611.8
2018-07-10T12:57:09.016Z,611.5
2018-07-10T12:58:11.193Z,611.1
2018-07-10T12:59:13.647Z,611.5
2018-07-10T13:00:15.555Z,611
2018-07-10T13:01:17.714Z,611.4
2018-07-10T13:02:19.628Z,611.7
2018-07-10T13:03:21.537Z,611.1
2018-07-10T13:04:23.960Z,611.2
2018-07-10T13:05:26.199Z,611
2018-07-10T13:06:28.379Z,611.1
2018-07-10T13:07:30.825Z,611.5
2018-07-10T13:08:33.276Z,611.9
2018-07-10T13:09:35.737Z,612.2
2018-07-10T13:10:38.207Z,612.4
2018-07-10T13:11:40.321Z,612.5
2018-07-10T13:12:42.488Z,613
2018-07-10T13:13:44.682Z,612.8
2018-07-10T13:14:46.842Z,612.3
2018-07-10T13:15:49.291Z,612.5
2018-07-10T13:16:51.751Z,611.8
2018-07-10T13:17:53.401Z,612.2
2018-07-10T13:18:55.579Z,612
2018-07-10T13:19:58.066Z,612.6
2018-07-10T13:21:00.258Z,612.9
2018-07-10T13:22:02.709Z,613.2
2018-07-10T13:23:04.610Z,612.4
2018-07-10T13:24:07.055Z,612.7
2018-07-10T13:25:09.501Z,613.1
2018-07-10T13:26:11.661Z,613.6
2018-07-10T13:27:13.770Z,613.5
2018-07-10T13:28:15.381Z,614.2
2018-07-10T13:29:17.557Z,614.3
2018-07-10T13:30:20.011Z,613.7
2018-07-10T13:31:22.200Z,614.1
2018-07-10T13:32:24.651Z,613.7
2018-07-10T13:33:27.100Z,613.6
2018-07-10T13:34:29.548Z,614.2
2018-07-10T13:35:31.729Z,613.8
2018-07-10T13:36:33.650Z,614.2
2018-07-10T13:37:35.846Z,614.4
2018-07-10T13:38:37.756Z,614.2
2018-07-10T13:39:39.376Z,614.8